sensor_id;sensor_type;location;lat;lon;timestamp;temperature;humidity
11540;DHT22;5826;54.756;9.192;2022-10-03T00:08:00;12.90;99.90
11540;DHT22;5826;54.756;9.192;2022-10-03T00:10:53;12.90;99.90
11540;DHT22;5826;54.756;9.192;2022-10-03T00:13:45;12.90;99.90
11540;DHT22;5826;54.756;9.192;2022-10-03T00:16:15;12.90;99.90
11540;DHT22;5826;54.756;9.192;2022-10-03T00:18:55;12.90;99.90
11540;DHT22;5826;54.756;9.192;2022-10-03T00:21:43;12.90;99.90
11540;DHT22;5826;54.756;9.192;2022-10-03T00:29:34;12.90;99.90
11540;DHT22;5826;54.756;9.192;2022-10-03T00:35:04;12.90;99.90
11540;DHT22;5826;54.756;9.192;2022-10-03T00:37:43;12.90;99.90
11540;DHT22;5826;54.756;9.192;2022-10-03T00:46:43;12.90;99.90
11540;DHT22;5826;54.756;9.192;2022-10-03T00:52:39;12.90;99.90
11540;DHT22;5826;54.756;9.192;2022-10-03T00:57:59;12.90;99.90
11540;DHT22;5826;54.756;9.192;2022-10-03T01:00:29;12.90;99.90
11540;DHT22;5826;54.756;9.192;2022-10-03T01:03:29;12.80;99.90
11540;DHT22;5826;54.756;9.192;2022-10-03T01:08:51;12.80;99.90
11540;DHT22;5826;54.756;9.192;2022-10-03T01:11:27;12.80;99.90
11540;DHT22;5826;54.756;9.192;2022-10-03T01:19:47;12.80;99.90
11540;DHT22;5826;54.756;9.192;2022-10-03T01:25:37;12.80;99.90
11540;DHT22;5826;54.756;9.192;2022-10-03T01:31:06;12.80;99.90
11540;DHT22;5826;54.756;9.192;2022-10-03T01:34:24;12.80;99.90
11540;DHT22;5826;54.756;9.192;2022-10-03T01:39:52;12.70;99.90
11540;DHT22;5826;54.756;9.192;2022-10-03T01:42:59;12.80;99.90
11540;DHT22;5826;54.756;9.192;2022-10-03T01:46:15;12.80;99.90
11540;DHT22;5826;54.756;9.192;2022-10-03T01:48:52;12.80;99.90
11540;DHT22;5826;54.756;9.192;2022-10-03T01:55:13;12.70;99.90
11540;DHT22;5826;54.756;9.192;2022-10-03T01:57:14;12.70;99.90
11540;DHT22;5826;54.756;9.192;2022-10-03T02:00:18;12.70;99.90
11540;DHT22;5826;54.756;9.192;2022-10-03T02:03:16;12.70;99.90
11540;DHT22;5826;54.756;9.192;2022-10-03T02:06:07;12.70;99.90
11540;DHT22;5826;54.756;9.192;2022-10-03T02:11:31;12.70;99.90
11540;DHT22;5826;54.756;9.192;2022-10-03T02:16:45;12.70;99.90
11540;DHT22;5826;54.756;9.192;2022-10-03T02:19:27;12.70;99.90
11540;DHT22;5826;54.756;9.192;2022-10-03T02:21:56;12.70;99.90
11540;DHT22;5826;54.756;9.192;2022-10-03T02:24:48;12.70;99.90
11540;DHT22;5826;54.756;9.192;2022-10-03T02:27:41;12.70;99.90
11540;DHT22;5826;54.756;9.192;2022-10-03T02:30:19;12.70;99.90
11540;DHT22;5826;54.756;9.192;2022-10-03T02:41:16;12.70;99.90
11540;DHT22;5826;54.756;9.192;2022-10-03T02:47:18;12.70;99.90
11540;DHT22;5826;54.756;9.192;2022-10-03T02:52:53;12.70;99.90
11540;DHT22;5826;54.756;9.192;2022-10-03T03:06:39;12.60;99.90
11540;DHT22;5826;54.756;9.192;2022-10-03T03:09:35;12.60;99.90
11540;DHT22;5826;54.756;9.192;2022-10-03T03:12:35;12.60;99.90
11540;DHT22;5826;54.756;9.192;2022-10-03T03:15:12;12.60;99.90
11540;DHT22;5826;54.756;9.192;2022-10-03T03:21:09;12.60;99.90
11540;DHT22;5826;54.756;9.192;2022-10-03T03:23:55;12.50;99.90
11540;DHT22;5826;54.756;9.192;2022-10-03T03:26:51;12.50;99.90
11540;DHT22;5826;54.756;9.192;2022-10-03T03:34:44;12.50;99.90
11540;DHT22;5826;54.756;9.192;2022-10-03T03:37:41;12.50;99.90
11540;DHT22;5826;54.756;9.192;2022-10-03T03:57:05;12.20;99.90
11540;DHT22;5826;54.756;9.192;2022-10-03T04:18:57;12.40;99.90
11540;DHT22;5826;54.756;9.192;2022-10-03T04:21:28;12.40;99.90
11540;DHT22;5826;54.756;9.192;2022-10-03T04:24:14;12.50;99.90
11540;DHT22;5826;54.756;9.192;2022-10-03T04:30:06;12.60;99.90
11540;DHT22;5826;54.756;9.192;2022-10-03T04:41:17;12.80;99.90
11540;DHT22;5826;54.756;9.192;2022-10-03T04:46:47;12.80;99.90
11540;DHT22;5826;54.756;9.192;2022-10-03T04:49:38;12.80;99.90
11540;DHT22;5826;54.756;9.192;2022-10-03T04:52:17;12.80;99.90
11540;DHT22;5826;54.756;9.192;2022-10-03T05:03:56;12.80;99.90
11540;DHT22;5826;54.756;9.192;2022-10-03T05:15:03;12.80;99.90
11540;DHT22;5826;54.756;9.192;2022-10-03T05:23:48;12.80;99.90
11540;DHT22;5826;54.756;9.192;2022-10-03T05:26:40;12.80;99.90
11540;DHT22;5826;54.756;9.192;2022-10-03T05:29:40;12.80;99.90
11540;DHT22;5826;54.756;9.192;2022-10-03T05:32:11;12.80;99.90
11540;DHT22;5826;54.756;9.192;2022-10-03T05:42:51;12.80;99.90
11540;DHT22;5826;54.756;9.192;2022-10-03T05:45:39;12.80;99.90
11540;DHT22;5826;54.756;9.192;2022-10-03T05:57:47;12.70;99.90
11540;DHT22;5826;54.756;9.192;2022-10-03T06:00:40;12.70;99.90
11540;DHT22;5826;54.756;9.192;2022-10-03T06:03:53;12.70;99.90
11540;DHT22;5826;54.756;9.192;2022-10-03T06:06:24;12.80;99.90
11540;DHT22;5826;54.756;9.192;2022-10-03T06:12:02;12.80;99.90
11540;DHT22;5826;54.756;9.192;2022-10-03T06:18:08;12.80;99.90
11540;DHT22;5826;54.756;9.192;2022-10-03T06:24:08;12.80;99.90
11540;DHT22;5826;54.756;9.192;2022-10-03T06:27:03;12.90;99.90
11540;DHT22;5826;54.756;9.192;2022-10-03T06:32:43;12.90;99.90
11540;DHT22;5826;54.756;9.192;2022-10-03T06:36:05;13.00;99.90
11540;DHT22;5826;54.756;9.192;2022-10-03T06:41:54;13.00;99.90
11540;DHT22;5826;54.756;9.192;2022-10-03T06:59:20;13.30;99.90
11540;DHT22;5826;54.756;9.192;2022-10-03T07:02:10;13.30;99.90
11540;DHT22;5826;54.756;9.192;2022-10-03T07:07:56;13.40;99.90
11540;DHT22;5826;54.756;9.192;2022-10-03T07:10:51;13.40;99.90
11540;DHT22;5826;54.756;9.192;2022-10-03T07:16:30;13.50;99.90
11540;DHT22;5826;54.756;9.192;2022-10-03T07:21:56;13.60;99.90
11540;DHT22;5826;54.756;9.192;2022-10-03T07:24:40;13.70;99.90
11540;DHT22;5826;54.756;9.192;2022-10-03T07:27:49;13.70;99.90
11540;DHT22;5826;54.756;9.192;2022-10-03T07:30:22;13.80;99.90
11540;DHT22;5826;54.756;9.192;2022-10-03T07:33:24;13.80;99.90
11540;DHT22;5826;54.756;9.192;2022-10-03T07:44:59;14.10;99.90
11540;DHT22;5826;54.756;9.192;2022-10-03T07:50:43;14.20;99.90
11540;DHT22;5826;54.756;9.192;2022-10-03T07:53:35;14.30;99.90
11540;DHT22;5826;54.756;9.192;2022-10-03T07:59:19;14.40;99.90
11540;DHT22;5826;54.756;9.192;2022-10-03T08:02:20;14.40;99.90
11540;DHT22;5826;54.756;9.192;2022-10-03T08:07:48;14.50;99.90
11540;DHT22;5826;54.756;9.192;2022-10-03T08:13:11;14.70;99.90
11540;DHT22;5826;54.756;9.192;2022-10-03T08:21:10;14.80;99.90
11540;DHT22;5826;54.756;9.192;2022-10-03T08:26:53;14.90;99.90
11540;DHT22;5826;54.756;9.192;2022-10-03T08:29:46;14.90;99.90
11540;DHT22;5826;54.756;9.192;2022-10-03T08:32:45;15.00;99.90
11540;DHT22;5826;54.756;9.192;2022-10-03T08:43:20;15.20;99.90
11540;DHT22;5826;54.756;9.192;2022-10-03T08:48:55;15.40;99.90
11540;DHT22;5826;54.756;9.192;2022-10-03T08:51:39;15.50;99.90
11540;DHT22;5826;54.756;9.192;2022-10-03T08:54:21;15.50;99.90
11540;DHT22;5826;54.756;9.192;2022-10-03T08:57:03;15.60;99.90
11540;DHT22;5826;54.756;9.192;2022-10-03T09:00:03;15.70;99.90
11540;DHT22;5826;54.756;9.192;2022-10-03T09:13:48;15.70;99.90
11540;DHT22;5826;54.756;9.192;2022-10-03T09:16:48;15.70;99.90
11540;DHT22;5826;54.756;9.192;2022-10-03T09:22:29;16.00;99.90
11540;DHT22;5826;54.756;9.192;2022-10-03T09:25:24;16.20;99.90
11540;DHT22;5826;54.756;9.192;2022-10-03T09:28:18;16.40;99.90
11540;DHT22;5826;54.756;9.192;2022-10-03T09:39:43;16.40;99.90
11540;DHT22;5826;54.756;9.192;2022-10-03T09:45:23;16.40;99.90
11540;DHT22;5826;54.756;9.192;2022-10-03T09:48:10;16.50;99.90
11540;DHT22;5826;54.756;9.192;2022-10-03T09:53:40;16.70;99.90
11540;DHT22;5826;54.756;9.192;2022-10-03T09:56:30;16.80;99.90
11540;DHT22;5826;54.756;9.192;2022-10-03T10:02:28;16.90;99.90
11540;DHT22;5826;54.756;9.192;2022-10-03T10:14:01;17.00;99.90
11540;DHT22;5826;54.756;9.192;2022-10-03T10:19:38;17.10;99.90
11540;DHT22;5826;54.756;9.192;2022-10-03T10:28:32;16.90;99.90
11540;DHT22;5826;54.756;9.192;2022-10-03T10:34:16;16.60;99.90
11540;DHT22;5826;54.756;9.192;2022-10-03T10:49:12;17.30;99.90
11540;DHT22;5826;54.756;9.192;2022-10-03T11:00:12;17.10;99.90
11540;DHT22;5826;54.756;9.192;2022-10-03T11:05:41;17.00;99.90
11540;DHT22;5826;54.756;9.192;2022-10-03T11:08:45;17.00;99.90
11540;DHT22;5826;54.756;9.192;2022-10-03T11:34:42;17.80;99.90
11540;DHT22;5826;54.756;9.192;2022-10-03T11:37:16;17.60;99.90
11540;DHT22;5826;54.756;9.192;2022-10-03T11:45:03;17.60;99.90
11540;DHT22;5826;54.756;9.192;2022-10-03T11:47:38;17.70;99.90
11540;DHT22;5826;54.756;9.192;2022-10-03T11:50:25;17.70;99.90
11540;DHT22;5826;54.756;9.192;2022-10-03T11:53:06;17.80;99.90
11540;DHT22;5826;54.756;9.192;2022-10-03T11:56:08;18.00;99.90
11540;DHT22;5826;54.756;9.192;2022-10-03T11:59:06;18.00;99.90
11540;DHT22;5826;54.756;9.192;2022-10-03T12:04:59;17.80;99.90
11540;DHT22;5826;54.756;9.192;2022-10-03T12:10:43;18.00;99.90
11540;DHT22;5826;54.756;9.192;2022-10-03T12:13:14;18.10;99.90
11540;DHT22;5826;54.756;9.192;2022-10-03T12:15:46;18.10;99.90
11540;DHT22;5826;54.756;9.192;2022-10-03T12:21:13;18.00;99.90
11540;DHT22;5826;54.756;9.192;2022-10-03T12:26:50;17.90;99.90
11540;DHT22;5826;54.756;9.192;2022-10-03T12:29:19;17.90;99.90
11540;DHT22;5826;54.756;9.192;2022-10-03T12:40:28;17.80;99.90
11540;DHT22;5826;54.756;9.192;2022-10-03T12:45:43;17.80;99.90
11540;DHT22;5826;54.756;9.192;2022-10-03T12:51:01;17.70;99.90
11540;DHT22;5826;54.756;9.192;2022-10-03T12:53:53;17.80;99.90
11540;DHT22;5826;54.756;9.192;2022-10-03T12:56:49;17.80;99.90
11540;DHT22;5826;54.756;9.192;2022-10-03T12:59:39;17.70;99.90
11540;DHT22;5826;54.756;9.192;2022-10-03T13:02:28;17.60;99.90
11540;DHT22;5826;54.756;9.192;2022-10-03T13:05:32;17.60;99.90
11540;DHT22;5826;54.756;9.192;2022-10-03T13:14:14;17.30;99.90
11540;DHT22;5826;54.756;9.192;2022-10-03T13:20:01;17.20;99.90
11540;DHT22;5826;54.756;9.192;2022-10-03T13:23:02;17.30;99.90
11540;DHT22;5826;54.756;9.192;2022-10-03T13:25:40;17.40;99.90
11540;DHT22;5826;54.756;9.192;2022-10-03T13:28:14;17.40;99.90
11540;DHT22;5826;54.756;9.192;2022-10-03T13:30:51;17.50;99.90
11540;DHT22;5826;54.756;9.192;2022-10-03T13:33:21;17.50;99.90
11540;DHT22;5826;54.756;9.192;2022-10-03T13:36:02;17.40;99.90
11540;DHT22;5826;54.756;9.192;2022-10-03T13:41:22;17.40;99.90
11540;DHT22;5826;54.756;9.192;2022-10-03T13:43:57;17.30;99.90
11540;DHT22;5826;54.756;9.192;2022-10-03T13:47:00;17.30;99.90
11540;DHT22;5826;54.756;9.192;2022-10-03T13:49:48;17.60;99.90
11540;DHT22;5826;54.756;9.192;2022-10-03T13:52:32;18.10;99.90
11540;DHT22;5826;54.756;9.192;2022-10-03T14:01:05;18.00;99.90
11540;DHT22;5826;54.756;9.192;2022-10-03T14:06:59;17.60;99.90
11540;DHT22;5826;54.756;9.192;2022-10-03T14:12:42;17.20;99.90
11540;DHT22;5826;54.756;9.192;2022-10-03T14:15:52;17.10;99.90
11540;DHT22;5826;54.756;9.192;2022-10-03T14:18:40;17.20;99.90
11540;DHT22;5826;54.756;9.192;2022-10-03T14:26:38;17.40;99.90
11540;DHT22;5826;54.756;9.192;2022-10-03T14:31:42;17.20;99.90
11540;DHT22;5826;54.756;9.192;2022-10-03T14:37:23;17.30;99.90
11540;DHT22;5826;54.756;9.192;2022-10-03T14:40:29;17.40;99.90
11540;DHT22;5826;54.756;9.192;2022-10-03T14:45:55;19.50;99.90
11540;DHT22;5826;54.756;9.192;2022-10-03T14:48:36;21.30;99.90
11540;DHT22;5826;54.756;9.192;2022-10-03T14:53:51;24.80;99.90
11540;DHT22;5826;54.756;9.192;2022-10-03T14:56:20;24.30;99.90
11540;DHT22;5826;54.756;9.192;2022-10-03T14:58:50;23.80;99.90
11540;DHT22;5826;54.756;9.192;2022-10-03T15:01:19;24.30;99.90
11540;DHT22;5826;54.756;9.192;2022-10-03T15:04:07;26.40;99.90
11540;DHT22;5826;54.756;9.192;2022-10-03T15:06:49;27.90;99.70
11540;DHT22;5826;54.756;9.192;2022-10-03T15:09:24;30.20;97.50
11540;DHT22;5826;54.756;9.192;2022-10-03T15:11:58;31.90;98.30
11540;DHT22;5826;54.756;9.192;2022-10-03T15:14:27;32.60;97.90
11540;DHT22;5826;54.756;9.192;2022-10-03T15:16:57;32.90;97.30
11540;DHT22;5826;54.756;9.192;2022-10-03T15:19:29;32.40;97.90
11540;DHT22;5826;54.756;9.192;2022-10-03T15:22:13;32.30;98.20
11540;DHT22;5826;54.756;9.192;2022-10-03T15:24:44;30.90;98.10
11540;DHT22;5826;54.756;9.192;2022-10-03T15:27:17;29.10;99.90
11540;DHT22;5826;54.756;9.192;2022-10-03T15:29:45;29.40;99.90
11540;DHT22;5826;54.756;9.192;2022-10-03T15:32:33;30.30;99.90
11540;DHT22;5826;54.756;9.192;2022-10-03T15:35:01;31.00;98.50
11540;DHT22;5826;54.756;9.192;2022-10-03T15:37:41;31.10;99.00
11540;DHT22;5826;54.756;9.192;2022-10-03T15:40:28;29.90;98.20
11540;DHT22;5826;54.756;9.192;2022-10-03T15:43:03;28.40;99.90
11540;DHT22;5826;54.756;9.192;2022-10-03T15:45:31;26.80;99.90
11540;DHT22;5826;54.756;9.192;2022-10-03T15:48:01;25.30;99.90
11540;DHT22;5826;54.756;9.192;2022-10-03T15:50:31;23.90;99.90
11540;DHT22;5826;54.756;9.192;2022-10-03T15:53:19;22.50;99.90
11540;DHT22;5826;54.756;9.192;2022-10-03T15:55:51;21.40;99.90
11540;DHT22;5826;54.756;9.192;2022-10-03T15:58:28;20.40;99.90
11540;DHT22;5826;54.756;9.192;2022-10-03T16:01:06;19.70;99.90
11540;DHT22;5826;54.756;9.192;2022-10-03T16:03:43;19.10;99.90
11540;DHT22;5826;54.756;9.192;2022-10-03T16:17:44;17.50;99.90
11540;DHT22;5826;54.756;9.192;2022-10-03T16:23:01;17.10;99.90
11540;DHT22;5826;54.756;9.192;2022-10-03T16:25:43;16.90;99.90
11540;DHT22;5826;54.756;9.192;2022-10-03T16:28:17;16.80;99.90
11540;DHT22;5826;54.756;9.192;2022-10-03T16:30:54;16.60;99.90
11540;DHT22;5826;54.756;9.192;2022-10-03T16:33:36;16.50;99.90
11540;DHT22;5826;54.756;9.192;2022-10-03T16:36:08;16.40;99.90
11540;DHT22;5826;54.756;9.192;2022-10-03T16:38:55;16.30;99.90
11540;DHT22;5826;54.756;9.192;2022-10-03T16:41:25;16.30;99.90
11540;DHT22;5826;54.756;9.192;2022-10-03T16:43:56;16.20;99.90
11540;DHT22;5826;54.756;9.192;2022-10-03T16:46:23;16.10;99.90
11540;DHT22;5826;54.756;9.192;2022-10-03T16:48:52;16.00;99.90
11540;DHT22;5826;54.756;9.192;2022-10-03T16:51:43;16.00;99.90
11540;DHT22;5826;54.756;9.192;2022-10-03T16:54:12;15.90;99.90
11540;DHT22;5826;54.756;9.192;2022-10-03T16:56:43;15.80;99.90
11540;DHT22;5826;54.756;9.192;2022-10-03T16:59:17;15.80;99.90
11540;DHT22;5826;54.756;9.192;2022-10-03T17:01:56;15.70;99.90
11540;DHT22;5826;54.756;9.192;2022-10-03T17:04:25;15.70;99.90
11540;DHT22;5826;54.756;9.192;2022-10-03T17:06:57;15.60;99.90
11540;DHT22;5826;54.756;9.192;2022-10-03T17:09:29;15.60;99.90
11540;DHT22;5826;54.756;9.192;2022-10-03T17:11:58;15.60;99.90
11540;DHT22;5826;54.756;9.192;2022-10-03T17:14:29;15.50;99.90
11540;DHT22;5826;54.756;9.192;2022-10-03T17:17:04;15.50;99.90
11540;DHT22;5826;54.756;9.192;2022-10-03T17:19:34;15.50;99.90
11540;DHT22;5826;54.756;9.192;2022-10-03T17:24:41;15.50;99.90
11540;DHT22;5826;54.756;9.192;2022-10-03T17:27:14;15.50;99.90
11540;DHT22;5826;54.756;9.192;2022-10-03T17:30:17;15.50;99.90
11540;DHT22;5826;54.756;9.192;2022-10-03T17:32:44;15.50;99.90
11540;DHT22;5826;54.756;9.192;2022-10-03T17:35:25;15.50;99.90
11540;DHT22;5826;54.756;9.192;2022-10-03T17:43:47;15.50;99.90
11540;DHT22;5826;54.756;9.192;2022-10-03T17:49:17;15.40;99.90
11540;DHT22;5826;54.756;9.192;2022-10-03T17:51:48;15.40;99.90
11540;DHT22;5826;54.756;9.192;2022-10-03T17:54:31;15.40;99.90
11540;DHT22;5826;54.756;9.192;2022-10-03T17:57:12;15.30;99.90
11540;DHT22;5826;54.756;9.192;2022-10-03T17:59:46;15.30;99.90
11540;DHT22;5826;54.756;9.192;2022-10-03T18:07:39;15.20;99.90
11540;DHT22;5826;54.756;9.192;2022-10-03T18:10:19;15.10;99.90
11540;DHT22;5826;54.756;9.192;2022-10-03T18:12:46;15.10;99.90
11540;DHT22;5826;54.756;9.192;2022-10-03T18:17:59;15.00;99.90
11540;DHT22;5826;54.756;9.192;2022-10-03T18:23:10;15.00;99.90
11540;DHT22;5826;54.756;9.192;2022-10-03T18:26:00;14.90;99.90
11540;DHT22;5826;54.756;9.192;2022-10-03T18:28:44;14.90;99.90
11540;DHT22;5826;54.756;9.192;2022-10-03T18:31:17;14.90;99.90
11540;DHT22;5826;54.756;9.192;2022-10-03T18:33:56;14.90;99.90
11540;DHT22;5826;54.756;9.192;2022-10-03T18:36:30;14.90;99.90
11540;DHT22;5826;54.756;9.192;2022-10-03T18:39:02;14.80;99.90
11540;DHT22;5826;54.756;9.192;2022-10-03T18:41:32;14.80;99.90
11540;DHT22;5826;54.756;9.192;2022-10-03T18:43:59;14.80;99.90
11540;DHT22;5826;54.756;9.192;2022-10-03T18:46:34;14.80;99.90
11540;DHT22;5826;54.756;9.192;2022-10-03T18:49:15;14.80;99.90
11540;DHT22;5826;54.756;9.192;2022-10-03T18:54:59;14.80;99.90
11540;DHT22;5826;54.756;9.192;2022-10-03T18:57:36;14.70;99.90
11540;DHT22;5826;54.756;9.192;2022-10-03T19:00:44;14.70;99.90
11540;DHT22;5826;54.756;9.192;2022-10-03T19:03:10;14.70;99.90
11540;DHT22;5826;54.756;9.192;2022-10-03T19:05:52;14.60;99.90
11540;DHT22;5826;54.756;9.192;2022-10-03T19:08:26;14.60;99.90
11540;DHT22;5826;54.756;9.192;2022-10-03T19:11:30;14.60;99.90
11540;DHT22;5826;54.756;9.192;2022-10-03T19:17:09;14.50;99.90
11540;DHT22;5826;54.756;9.192;2022-10-03T19:19:53;14.50;99.90
11540;DHT22;5826;54.756;9.192;2022-10-03T19:22:27;14.50;99.90
11540;DHT22;5826;54.756;9.192;2022-10-03T19:24:58;14.40;99.90
11540;DHT22;5826;54.756;9.192;2022-10-03T19:27:43;14.40;99.90
11540;DHT22;5826;54.756;9.192;2022-10-03T19:30:21;14.30;99.90
11540;DHT22;5826;54.756;9.192;2022-10-03T19:32:58;14.30;99.90
11540;DHT22;5826;54.756;9.192;2022-10-03T19:35:27;14.30;99.90
11540;DHT22;5826;54.756;9.192;2022-10-03T19:38:04;14.20;99.90
11540;DHT22;5826;54.756;9.192;2022-10-03T19:40:51;14.20;99.90
11540;DHT22;5826;54.756;9.192;2022-10-03T19:48:53;14.10;99.90
11540;DHT22;5826;54.756;9.192;2022-10-03T19:51:22;14.10;99.90
11540;DHT22;5826;54.756;9.192;2022-10-03T19:53:49;14.10;99.90
11540;DHT22;5826;54.756;9.192;2022-10-03T19:56:17;14.10;99.90
11540;DHT22;5826;54.756;9.192;2022-10-03T19:58:45;14.10;99.90
11540;DHT22;5826;54.756;9.192;2022-10-03T20:01:11;14.10;99.90
11540;DHT22;5826;54.756;9.192;2022-10-03T20:03:47;14.10;99.90
11540;DHT22;5826;54.756;9.192;2022-10-03T20:06:19;14.00;99.90
11540;DHT22;5826;54.756;9.192;2022-10-03T20:08:55;14.00;99.90
11540;DHT22;5826;54.756;9.192;2022-10-03T20:13:56;13.90;99.90
11540;DHT22;5826;54.756;9.192;2022-10-03T20:16:26;13.90;99.90
11540;DHT22;5826;54.756;9.192;2022-10-03T20:19:04;14.00;99.90
11540;DHT22;5826;54.756;9.192;2022-10-03T20:21:30;13.90;99.90
11540;DHT22;5826;54.756;9.192;2022-10-03T20:23:58;13.90;99.90
11540;DHT22;5826;54.756;9.192;2022-10-03T20:26:45;13.90;99.90
11540;DHT22;5826;54.756;9.192;2022-10-03T20:29:20;13.80;99.90
11540;DHT22;5826;54.756;9.192;2022-10-03T20:31:47;13.80;99.90
11540;DHT22;5826;54.756;9.192;2022-10-03T20:34:15;13.70;99.90
11540;DHT22;5826;54.756;9.192;2022-10-03T20:36:46;13.70;99.90
11540;DHT22;5826;54.756;9.192;2022-10-03T20:39:21;13.60;99.90
11540;DHT22;5826;54.756;9.192;2022-10-03T20:42:07;13.60;99.90
11540;DHT22;5826;54.756;9.192;2022-10-03T20:45:02;13.60;99.90
11540;DHT22;5826;54.756;9.192;2022-10-03T20:47:50;13.60;99.90
11540;DHT22;5826;54.756;9.192;2022-10-03T20:52:51;14.30;99.90
11540;DHT22;5826;54.756;9.192;2022-10-03T20:55:22;13.50;99.90
11540;DHT22;5826;54.756;9.192;2022-10-03T20:58:13;13.50;99.90
11540;DHT22;5826;54.756;9.192;2022-10-03T21:00:45;13.50;99.90
11540;DHT22;5826;54.756;9.192;2022-10-03T21:03:38;13.50;99.90
11540;DHT22;5826;54.756;9.192;2022-10-03T21:06:17;13.40;99.90
11540;DHT22;5826;54.756;9.192;2022-10-03T21:08:44;13.40;99.90
11540;DHT22;5826;54.756;9.192;2022-10-03T21:11:20;13.40;99.90
11540;DHT22;5826;54.756;9.192;2022-10-03T21:16:26;13.30;99.90
11540;DHT22;5826;54.756;9.192;2022-10-03T21:18:56;13.30;99.90
11540;DHT22;5826;54.756;9.192;2022-10-03T21:21:39;13.30;99.90
11540;DHT22;5826;54.756;9.192;2022-10-03T21:24:11;13.20;99.90
11540;DHT22;5826;54.756;9.192;2022-10-03T21:26:51;13.20;99.90
11540;DHT22;5826;54.756;9.192;2022-10-03T21:29:30;13.20;99.90
11540;DHT22;5826;54.756;9.192;2022-10-03T21:32:23;13.20;99.90
11540;DHT22;5826;54.756;9.192;2022-10-03T21:35:18;13.10;99.90
11540;DHT22;5826;54.756;9.192;2022-10-03T21:41:03;13.10;99.90
11540;DHT22;5826;54.756;9.192;2022-10-03T21:43:59;13.00;99.90
11540;DHT22;5826;54.756;9.192;2022-10-03T21:46:50;13.00;99.90
11540;DHT22;5826;54.756;9.192;2022-10-03T21:57:21;13.00;99.90
11540;DHT22;5826;54.756;9.192;2022-10-03T22:05:58;13.10;99.90
11540;DHT22;5826;54.756;9.192;2022-10-03T22:08:29;13.10;99.90
11540;DHT22;5826;54.756;9.192;2022-10-03T22:13:41;13.10;99.90
11540;DHT22;5826;54.756;9.192;2022-10-03T22:16:24;13.10;99.90
11540;DHT22;5826;54.756;9.192;2022-10-03T22:24:57;13.00;99.90
11540;DHT22;5826;54.756;9.192;2022-10-03T22:27:42;13.00;99.90
11540;DHT22;5826;54.756;9.192;2022-10-03T22:30:18;13.00;99.90
11540;DHT22;5826;54.756;9.192;2022-10-03T22:33:17;13.00;99.90
11540;DHT22;5826;54.756;9.192;2022-10-03T22:35:52;13.00;99.90
11540;DHT22;5826;54.756;9.192;2022-10-03T22:38:22;12.90;99.90
11540;DHT22;5826;54.756;9.192;2022-10-03T22:40:48;13.00;99.90
11540;DHT22;5826;54.756;9.192;2022-10-03T22:43:16;13.00;99.90
11540;DHT22;5826;54.756;9.192;2022-10-03T22:45:46;13.00;99.90
11540;DHT22;5826;54.756;9.192;2022-10-03T22:48:18;13.00;99.90
11540;DHT22;5826;54.756;9.192;2022-10-03T22:50:45;13.00;99.90
11540;DHT22;5826;54.756;9.192;2022-10-03T22:53:15;13.00;99.90
11540;DHT22;5826;54.756;9.192;2022-10-03T22:55:45;13.00;99.90
11540;DHT22;5826;54.756;9.192;2022-10-03T22:58:13;13.00;99.90
11540;DHT22;5826;54.756;9.192;2022-10-03T23:00:40;13.00;99.90
11540;DHT22;5826;54.756;9.192;2022-10-03T23:03:17;13.00;99.90
11540;DHT22;5826;54.756;9.192;2022-10-03T23:05:59;13.00;99.90
11540;DHT22;5826;54.756;9.192;2022-10-03T23:11:26;12.90;99.90
11540;DHT22;5826;54.756;9.192;2022-10-03T23:13:52;12.90;99.90
11540;DHT22;5826;54.756;9.192;2022-10-03T23:16:53;12.90;99.90
11540;DHT22;5826;54.756;9.192;2022-10-03T23:22:00;12.90;99.90
11540;DHT22;5826;54.756;9.192;2022-10-03T23:35:18;12.90;99.90
11540;DHT22;5826;54.756;9.192;2022-10-03T23:37:46;12.90;99.90
11540;DHT22;5826;54.756;9.192;2022-10-03T23:40:45;12.80;99.90
11540;DHT22;5826;54.756;9.192;2022-10-03T23:43:32;12.80;99.90
11540;DHT22;5826;54.756;9.192;2022-10-03T23:46:02;12.80;99.90
11540;DHT22;5826;54.756;9.192;2022-10-03T23:48:30;12.80;99.90
11540;DHT22;5826;54.756;9.192;2022-10-03T23:51:05;12.70;99.90
11540;DHT22;5826;54.756;9.192;2022-10-03T23:53:37;12.70;99.90
11540;DHT22;5826;54.756;9.192;2022-10-03T23:59:07;12.70;99.90
